createdAt,value
2017-12-15T00:00:02.765Z,0
2017-12-15T00:01:03.469Z,0
2017-12-15T00:02:04.175Z,0
2017-12-15T00:03:04.879Z,0
2017-12-15T00:04:05.584Z,0
2017-12-15T00:05:06.288Z,0
2017-12-15T00:06:06.993Z,0
2017-12-15T00:07:07.696Z,0
2017-12-15T00:08:08.400Z,0
2017-12-15T00:09:09.106Z,0
2017-12-15T00:10:09.809Z,0
2017-12-15T00:11:10.515Z,0
2017-12-15T00:12:11.232Z,0
2017-12-15T00:13:11.937Z,0
2017-12-15T00:14:12.644Z,0
2017-12-15T00:15:13.348Z,0
2017-12-15T00:16:14.054Z,0
2017-12-15T00:17:14.759Z,0
2017-12-15T00:18:15.464Z,0
2017-12-15T00:19:16.168Z,0
2017-12-15T00:20:16.872Z,0
2017-12-15T00:21:17.578Z,0
2017-12-15T00:22:18.282Z,0
2017-12-15T00:23:19.001Z,0
2017-12-15T00:24:19.725Z,0
2017-12-15T00:25:20.423Z,0
2017-12-15T00:26:21.143Z,0
2017-12-15T00:27:21.851Z,0
2017-12-15T00:28:22.552Z,0
2017-12-15T00:29:23.257Z,0
2017-12-15T00:30:23.963Z,0
2017-12-15T00:31:24.668Z,0
2017-12-15T00:32:25.373Z,0
2017-12-15T00:33:26.076Z,0
2017-12-15T00:34:26.781Z,0
2017-12-15T00:35:27.485Z,0
2017-12-15T00:36:28.191Z,0
2017-12-15T00:37:28.908Z,0
2017-12-15T00:38:29.616Z,0
2017-12-15T00:39:30.334Z,0
2017-12-15T00:40:31.039Z,0
2017-12-15T00:41:31.743Z,0
2017-12-15T00:42:32.446Z,0
2017-12-15T00:43:33.165Z,0
2017-12-15T00:44:33.886Z,0
2017-12-15T00:45:34.591Z,0
2017-12-15T00:46:35.298Z,0
2017-12-15T00:47:36.004Z,0
2017-12-15T00:48:36.711Z,0
2017-12-15T00:49:37.417Z,0
2017-12-15T00:50:38.121Z,0
2017-12-15T00:51:38.827Z,0
2017-12-15T00:52:39.544Z,0
2017-12-15T00:53:40.262Z,0
2017-12-15T00:54:40.969Z,0
2017-12-15T00:55:41.673Z,0
2017-12-15T00:56:42.378Z,0
2017-12-15T00:57:43.082Z,0
2017-12-15T00:58:43.787Z,0
2017-12-15T00:59:44.506Z,0
2017-12-15T01:00:45.215Z,0
2017-12-15T01:01:45.916Z,0
2017-12-15T01:02:46.636Z,0
2017-12-15T01:03:47.341Z,0
2017-12-15T01:04:48.047Z,0
2017-12-15T01:05:48.754Z,0
2017-12-15T01:06:49.458Z,0
2017-12-15T01:07:50.164Z,0
2017-12-15T01:08:50.870Z,0
2017-12-15T01:09:51.575Z,0
2017-12-15T01:10:52.281Z,0
2017-12-15T01:11:52.986Z,0
2017-12-15T01:12:53.705Z,0
2017-12-15T01:13:54.424Z,0
2017-12-15T01:14:55.132Z,0
2017-12-15T01:15:55.833Z,0
2017-12-15T01:16:56.538Z,0
2017-12-15T01:17:57.242Z,0
2017-12-15T01:18:57.960Z,0
2017-12-15T01:19:58.676Z,0
2017-12-15T01:20:59.381Z,0
2017-12-15T01:22:00.085Z,0
2017-12-15T01:23:00.805Z,0
2017-12-15T01:24:01.512Z,0
2017-12-15T01:25:02.216Z,0
2017-12-15T01:26:02.921Z,0
2017-12-15T01:27:03.627Z,0
2017-12-15T01:28:04.332Z,0
2017-12-15T01:29:05.049Z,0
2017-12-15T01:30:05.767Z,0
2017-12-15T01:31:06.471Z,0
2017-12-15T01:32:07.178Z,0
2017-12-15T01:33:07.881Z,0
2017-12-15T01:34:08.585Z,0
2017-12-15T01:35:09.305Z,0
2017-12-15T01:36:10.010Z,0
2017-12-15T01:37:10.714Z,0
2017-12-15T01:38:11.427Z,0
2017-12-15T01:39:12.138Z,0
2017-12-15T01:40:12.845Z,0
2017-12-15T01:41:13.550Z,0
2017-12-15T01:42:14.256Z,0
2017-12-15T01:43:14.960Z,0
2017-12-15T01:44:15.666Z,0
2017-12-15T01:45:16.372Z,0
2017-12-15T01:46:17.078Z,0
2017-12-15T01:47:17.782Z,0
2017-12-15T01:48:18.490Z,0
2017-12-15T01:49:19.194Z,0
2017-12-15T01:50:19.898Z,0
2017-12-15T01:51:20.603Z,0
2017-12-15T01:52:21.307Z,0
2017-12-15T01:53:22.014Z,0
2017-12-15T01:54:22.733Z,0
2017-12-15T01:55:23.454Z,0
2017-12-15T01:56:24.160Z,0
2017-12-15T01:57:24.865Z,0
2017-12-15T01:58:25.591Z,0
2017-12-15T01:59:26.289Z,0
2017-12-15T02:00:27.007Z,0
2017-12-15T02:01:27.712Z,0
2017-12-15T02:02:28.419Z,0
2017-12-15T02:03:29.123Z,0
2017-12-15T02:04:29.829Z,0
2017-12-15T02:05:30.534Z,0
2017-12-15T02:06:31.238Z,0
2017-12-15T02:07:31.955Z,0
2017-12-15T02:08:32.674Z,0
2017-12-15T02:09:33.379Z,0
2017-12-15T02:10:34.083Z,0
2017-12-15T02:11:34.787Z,0
2017-12-15T02:12:35.491Z,0
2017-12-15T02:13:36.194Z,0
2017-12-15T02:14:36.913Z,0
2017-12-15T02:15:37.630Z,0
2017-12-15T02:16:38.337Z,0
2017-12-15T02:17:39.041Z,0
2017-12-15T02:18:39.745Z,0
2017-12-15T02:19:40.451Z,0
2017-12-15T02:20:41.157Z,0
2017-12-15T02:21:41.861Z,0
2017-12-15T02:22:42.566Z,0
2017-12-15T02:23:43.273Z,0
2017-12-15T02:24:43.994Z,0
2017-12-15T02:25:44.700Z,0
2017-12-15T02:26:45.407Z,0
2017-12-15T02:27:46.114Z,0
2017-12-15T02:28:46.832Z,0
2017-12-15T02:29:47.538Z,0
2017-12-15T02:30:48.505Z,0
2017-12-15T02:31:49.211Z,0
2017-12-15T02:32:49.917Z,0
2017-12-15T02:33:50.621Z,0
2017-12-15T02:34:51.327Z,0
2017-12-15T02:35:52.299Z,0
2017-12-15T02:36:53.008Z,0
2017-12-15T02:37:53.728Z,0
2017-12-15T02:38:54.433Z,0
2017-12-15T02:39:55.139Z,0
2017-12-15T02:40:55.847Z,0
2017-12-15T02:41:56.551Z,0
2017-12-15T02:42:57.259Z,0
2017-12-15T02:43:57.964Z,0
2017-12-15T02:44:58.687Z,0
2017-12-15T02:45:59.407Z,0
2017-12-15T02:47:00.113Z,0
2017-12-15T02:48:00.820Z,0
2017-12-15T02:49:01.529Z,0
2017-12-15T02:50:02.232Z,0
2017-12-15T02:51:02.952Z,0
2017-12-15T02:52:03.660Z,0
2017-12-15T02:53:04.367Z,0
2017-12-15T02:54:05.074Z,0
2017-12-15T02:55:05.792Z,0
2017-12-15T02:56:06.497Z,0
2017-12-15T02:57:07.203Z,0
2017-12-15T02:58:07.910Z,0
2017-12-15T02:59:08.616Z,0
2017-12-15T03:00:09.324Z,0
2017-12-15T03:01:10.029Z,0
2017-12-15T03:02:10.736Z,0
2017-12-15T03:03:11.440Z,0
2017-12-15T03:04:12.146Z,0
2017-12-15T03:05:12.857Z,0
2017-12-15T03:06:13.573Z,0
2017-12-15T03:07:14.293Z,0
2017-12-15T03:08:15.000Z,0
2017-12-15T03:09:15.706Z,0
2017-12-15T03:10:16.428Z,0
2017-12-15T03:11:17.134Z,0
2017-12-15T03:12:17.853Z,0
2017-12-15T03:13:18.560Z,0
2017-12-15T03:14:19.264Z,0
2017-12-15T03:15:19.987Z,0
2017-12-15T03:16:20.708Z,0
2017-12-15T03:17:21.412Z,0
2017-12-15T03:18:22.131Z,0
2017-12-15T03:19:22.837Z,0
2017-12-15T03:20:23.543Z,0
2017-12-15T03:21:24.247Z,0
2017-12-15T03:22:24.953Z,0
2017-12-15T03:23:25.660Z,0
2017-12-15T03:24:26.380Z,0
2017-12-15T03:25:27.087Z,0
2017-12-15T03:26:27.805Z,0
2017-12-15T03:27:28.517Z,0
2017-12-15T03:28:29.218Z,0
2017-12-15T03:29:29.939Z,0
2017-12-15T03:30:30.647Z,0
2017-12-15T03:31:31.353Z,0
2017-12-15T03:32:32.073Z,0
2017-12-15T03:33:32.778Z,0
2017-12-15T03:34:33.490Z,0
2017-12-15T03:35:34.190Z,0
2017-12-15T03:36:34.896Z,0
2017-12-15T03:37:35.602Z,0
2017-12-15T03:38:36.309Z,0
2017-12-15T03:39:37.014Z,0
2017-12-15T03:40:37.718Z,0
2017-12-15T03:41:38.423Z,0
2017-12-15T03:42:39.128Z,0
2017-12-15T03:43:39.890Z,0
2017-12-15T03:44:40.555Z,0
2017-12-15T03:45:41.262Z,0
2017-12-15T03:46:41.985Z,0
2017-12-15T03:47:42.689Z,0
2017-12-15T03:48:43.394Z,0
2017-12-15T03:49:44.100Z,0
2017-12-15T03:50:44.821Z,0
2017-12-15T03:51:45.527Z,0
2017-12-15T03:52:46.233Z,0
2017-12-15T03:53:46.939Z,0
2017-12-15T03:54:47.644Z,0
2017-12-15T03:55:48.351Z,0
2017-12-15T03:56:49.057Z,0
2017-12-15T03:57:49.761Z,0
2017-12-15T03:58:50.464Z,0
2017-12-15T03:59:51.171Z,0
2017-12-15T04:00:51.875Z,0
2017-12-15T04:01:52.581Z,0
2017-12-15T04:02:53.285Z,0
2017-12-15T04:03:53.992Z,0
2017-12-15T04:04:54.698Z,0
2017-12-15T04:05:55.419Z,0
2017-12-15T04:06:56.125Z,0
2017-12-15T04:07:56.833Z,0
2017-12-15T04:08:57.540Z,0
2017-12-15T04:09:58.246Z,0
2017-12-15T04:10:58.950Z,0
2017-12-15T04:11:59.657Z,0
2017-12-15T04:13:00.361Z,0
2017-12-15T04:14:01.066Z,0
2017-12-15T04:15:01.771Z,0
2017-12-15T04:16:02.490Z,0
2017-12-15T04:17:03.197Z,0
2017-12-15T04:18:03.917Z,0
2017-12-15T04:19:04.638Z,0
2017-12-15T04:20:05.341Z,0
2017-12-15T04:21:06.047Z,0
2017-12-15T04:22:06.753Z,0
2017-12-15T04:23:07.460Z,0
2017-12-15T04:24:08.166Z,0
2017-12-15T04:25:08.872Z,0
2017-12-15T04:26:09.595Z,0
2017-12-15T04:27:10.313Z,0
2017-12-15T04:28:11.020Z,0
2017-12-15T04:29:11.726Z,0
2017-12-15T04:30:12.432Z,0
2017-12-15T04:31:13.137Z,0
2017-12-15T04:32:13.842Z,0
2017-12-15T04:33:14.549Z,0
2017-12-15T04:34:15.255Z,0
2017-12-15T04:35:15.959Z,0
2017-12-15T04:36:16.664Z,0
2017-12-15T04:37:17.371Z,0
2017-12-15T04:38:18.077Z,0
2017-12-15T04:39:18.802Z,0
2017-12-15T04:40:19.519Z,0
2017-12-15T04:41:20.224Z,0
2017-12-15T04:42:20.928Z,0
2017-12-15T04:43:21.632Z,0
2017-12-15T04:44:22.336Z,0
2017-12-15T04:45:23.042Z,0
2017-12-15T04:46:23.746Z,0
2017-12-15T04:47:24.452Z,0
2017-12-15T04:48:25.158Z,0
2017-12-15T04:49:25.863Z,0
2017-12-15T04:50:26.585Z,0
2017-12-15T04:51:27.304Z,0
2017-12-15T04:52:28.025Z,0
2017-12-15T04:53:28.745Z,0
2017-12-15T04:54:29.449Z,0
2017-12-15T04:55:30.168Z,0
2017-12-15T04:56:30.870Z,0
2017-12-15T04:57:31.576Z,0
2017-12-15T04:58:32.281Z,0
2017-12-15T04:59:33.001Z,0
2017-12-15T05:00:33.708Z,0
2017-12-15T05:01:34.412Z,0
2017-12-15T05:02:35.136Z,0
2017-12-15T05:03:35.841Z,0
2017-12-15T05:04:36.560Z,0
2017-12-15T05:05:37.267Z,0
2017-12-15T05:06:37.985Z,0
2017-12-15T05:07:38.710Z,0
2017-12-15T05:08:39.409Z,0
2017-12-15T05:09:40.114Z,0
2017-12-15T05:10:40.822Z,0
2017-12-15T05:11:41.527Z,0
2017-12-15T05:12:42.234Z,0
2017-12-15T05:13:42.942Z,0
2017-12-15T05:14:43.661Z,0
2017-12-15T05:15:44.367Z,0
2017-12-15T05:16:45.073Z,0
2017-12-15T05:17:45.794Z,0
2017-12-15T05:18:46.501Z,0
2017-12-15T05:19:47.210Z,0
2017-12-15T05:20:47.933Z,0
2017-12-15T05:21:48.636Z,0
2017-12-15T05:22:49.344Z,0
2017-12-15T05:23:50.050Z,0
2017-12-15T05:24:50.760Z,0
2017-12-15T05:25:51.459Z,0
2017-12-15T05:26:52.163Z,0
2017-12-15T05:27:52.872Z,0
2017-12-15T05:28:53.592Z,0
2017-12-15T05:29:54.299Z,0
2017-12-15T05:30:55.004Z,0
2017-12-15T05:31:55.709Z,0
2017-12-15T05:32:56.414Z,0
2017-12-15T05:33:57.134Z,0
2017-12-15T05:34:57.839Z,0
2017-12-15T05:35:58.544Z,0
2017-12-15T05:36:59.249Z,0
2017-12-15T05:37:59.957Z,0
2017-12-15T05:39:00.663Z,0
2017-12-15T05:40:01.367Z,0
2017-12-15T05:41:02.071Z,0
2017-12-15T05:42:02.779Z,0
2017-12-15T05:43:03.496Z,0
2017-12-15T05:44:04.201Z,0
2017-12-15T05:45:04.906Z,0
2017-12-15T05:46:05.611Z,0
2017-12-15T05:47:06.331Z,0
2017-12-15T05:48:07.053Z,0
2017-12-15T05:49:07.760Z,0
2017-12-15T05:50:08.478Z,0
2017-12-15T05:51:09.183Z,0
2017-12-15T05:52:09.889Z,0
2017-12-15T05:53:10.595Z,0
2017-12-15T05:54:11.302Z,0
2017-12-15T05:55:12.008Z,0
2017-12-15T05:56:12.714Z,0
2017-12-15T05:57:13.441Z,0
2017-12-15T05:58:14.143Z,0
2017-12-15T05:59:14.847Z,0
2017-12-15T06:00:15.568Z,0
2017-12-15T06:01:16.275Z,0
2017-12-15T06:02:16.998Z,0
2017-12-15T06:03:17.719Z,0
2017-12-15T06:04:18.426Z,0
2017-12-15T06:05:19.131Z,0
2017-12-15T06:06:19.837Z,0
2017-12-15T06:07:20.544Z,0
2017-12-15T06:08:21.250Z,0
2017-12-15T06:09:21.956Z,0
2017-12-15T06:10:22.661Z,0
2017-12-15T06:11:23.367Z,0
2017-12-15T06:12:24.073Z,0
2017-12-15T06:13:24.778Z,0
2017-12-15T06:14:25.484Z,0
2017-12-15T06:15:26.189Z,0
2017-12-15T06:16:26.932Z,0
2017-12-15T06:17:27.618Z,0
2017-12-15T06:18:28.324Z,0
2017-12-15T06:19:29.029Z,0
2017-12-15T06:20:29.733Z,0
2017-12-15T06:21:30.455Z,0
2017-12-15T06:22:31.160Z,0
2017-12-15T06:23:31.865Z,0
2017-12-15T06:24:32.570Z,0
2017-12-15T06:25:33.276Z,0
2017-12-15T06:26:33.982Z,0
2017-12-15T06:27:34.708Z,0
2017-12-15T06:28:35.408Z,0
2017-12-15T06:29:36.127Z,0
2017-12-15T06:30:36.832Z,0
2017-12-15T06:31:37.536Z,0
2017-12-15T06:32:38.258Z,0
2017-12-15T06:33:38.978Z,0
2017-12-15T06:34:39.683Z,0
2017-12-15T06:35:40.390Z,0
2017-12-15T06:36:41.096Z,0
2017-12-15T06:37:41.802Z,0
2017-12-15T06:38:42.508Z,0
2017-12-15T06:39:43.215Z,0
2017-12-15T06:40:43.923Z,0
2017-12-15T06:41:44.624Z,0
2017-12-15T06:42:45.344Z,0
2017-12-15T06:43:46.067Z,0
2017-12-15T06:44:46.791Z,0
2017-12-15T06:45:47.493Z,0
2017-12-15T06:46:48.198Z,0
2017-12-15T06:47:48.903Z,0
2017-12-15T06:48:49.612Z,0
2017-12-15T06:49:50.318Z,0
2017-12-15T06:50:51.027Z,0
2017-12-15T06:51:51.734Z,0
2017-12-15T06:52:52.439Z,0
2017-12-15T06:53:53.159Z,0
2017-12-15T06:54:53.865Z,0
2017-12-15T06:55:54.569Z,0
2017-12-15T06:56:55.274Z,0
2017-12-15T06:57:55.984Z,0
2017-12-15T06:58:56.687Z,0
2017-12-15T06:59:57.393Z,0
2017-12-15T07:00:58.115Z,0
2017-12-15T07:01:58.837Z,4
2017-12-15T07:02:59.543Z,4
2017-12-15T07:04:00.248Z,4
2017-12-15T07:05:00.954Z,4
2017-12-15T07:06:01.660Z,4
2017-12-15T07:07:02.372Z,8
2017-12-15T07:08:03.073Z,12
2017-12-15T07:09:03.779Z,12
2017-12-15T07:10:04.487Z,16
2017-12-15T07:11:05.209Z,20
2017-12-15T07:12:05.917Z,20
2017-12-15T07:13:06.624Z,24
2017-12-15T07:14:07.331Z,28
2017-12-15T07:15:08.039Z,32
2017-12-15T07:16:08.762Z,28
2017-12-15T07:17:09.482Z,32
2017-12-15T07:18:10.203Z,40
2017-12-15T07:19:10.914Z,40
2017-12-15T07:20:11.632Z,44
2017-12-15T07:21:12.338Z,48
2017-12-15T07:22:13.043Z,44
2017-12-15T07:23:13.751Z,48
2017-12-15T07:24:14.465Z,44
2017-12-15T07:25:15.166Z,44
2017-12-15T07:26:15.873Z,44
2017-12-15T07:27:16.588Z,48
2017-12-15T07:28:17.303Z,56
2017-12-15T07:29:18.025Z,64
2017-12-15T07:30:18.748Z,68
2017-12-15T07:31:19.468Z,76
2017-12-15T07:32:20.176Z,88
2017-12-15T07:33:20.882Z,96
2017-12-15T07:34:21.603Z,92
2017-12-15T07:35:22.315Z,104
2017-12-15T07:36:23.024Z,112
2017-12-15T07:37:23.732Z,128
2017-12-15T07:38:24.440Z,156
2017-12-15T07:39:25.147Z,180
2017-12-15T07:40:25.854Z,220
2017-12-15T07:41:26.564Z,196
2017-12-15T07:42:27.286Z,192
2017-12-15T07:43:27.997Z,184
2017-12-15T07:44:28.705Z,208
2017-12-15T07:45:29.417Z,208
2017-12-15T07:46:30.134Z,176
2017-12-15T07:47:30.842Z,176
2017-12-15T07:48:31.549Z,180
2017-12-15T07:49:32.258Z,196
2017-12-15T07:50:32.979Z,212
2017-12-15T07:51:33.688Z,212
2017-12-15T07:52:34.396Z,220
2017-12-15T07:53:35.104Z,248
2017-12-15T07:54:35.812Z,232
2017-12-15T07:55:36.520Z,240
2017-12-15T07:56:37.242Z,244
2017-12-15T07:57:37.965Z,240
2017-12-15T07:58:38.674Z,232
2017-12-15T07:59:39.383Z,292
2017-12-15T08:00:40.092Z,336
2017-12-15T08:01:40.802Z,308
2017-12-15T08:02:41.525Z,324
2017-12-15T08:03:42.237Z,376
2017-12-15T08:04:42.959Z,496
2017-12-15T08:05:43.669Z,644
2017-12-15T08:06:44.378Z,696
2017-12-15T08:07:45.085Z,528
2017-12-15T08:08:45.807Z,636
2017-12-15T08:09:46.517Z,740
2017-12-15T08:10:47.226Z,768
2017-12-15T08:11:47.938Z,724
2017-12-15T08:12:48.647Z,712
2017-12-15T08:13:49.371Z,740
2017-12-15T08:14:50.082Z,744
2017-12-15T08:15:50.791Z,692
2017-12-15T08:16:51.503Z,704
2017-12-15T08:17:52.227Z,744
2017-12-15T08:18:52.936Z,672
2017-12-15T08:19:53.653Z,656
2017-12-15T08:20:54.353Z,604
2017-12-15T08:21:55.065Z,544
2017-12-15T08:22:55.773Z,480
2017-12-15T08:23:56.481Z,472
2017-12-15T08:24:57.190Z,460
2017-12-15T08:25:57.900Z,456
2017-12-15T08:26:58.612Z,492
2017-12-15T08:27:59.320Z,504
2017-12-15T08:29:00.029Z,528
2017-12-15T08:30:00.738Z,612
2017-12-15T08:31:01.449Z,616
2017-12-15T08:32:02.166Z,712
2017-12-15T08:33:02.866Z,784
2017-12-15T08:34:03.574Z,824
2017-12-15T08:35:04.285Z,820
2017-12-15T08:36:04.996Z,944
2017-12-15T08:37:05.704Z,936
2017-12-15T08:38:06.412Z,884
2017-12-15T08:39:07.120Z,856
2017-12-15T08:40:07.831Z,788
2017-12-15T08:41:08.554Z,804
2017-12-15T08:42:09.266Z,732
2017-12-15T08:43:09.973Z,648
2017-12-15T08:44:10.681Z,664
2017-12-15T08:45:11.405Z,748
2017-12-15T08:46:12.128Z,736
2017-12-15T08:47:12.852Z,760
2017-12-15T08:48:13.561Z,876
2017-12-15T08:49:14.270Z,836
2017-12-15T08:50:14.978Z,832
2017-12-15T08:51:15.687Z,772
2017-12-15T08:54:17.654Z,880
2017-12-15T08:55:18.364Z,760
2017-12-15T08:56:19.073Z,836
2017-12-15T08:57:19.783Z,884
2017-12-15T08:58:20.492Z,932
2017-12-15T08:59:21.219Z,948
2017-12-15T09:00:21.930Z,1092
2017-12-15T09:01:22.647Z,1316
2017-12-15T09:02:23.353Z,1252
2017-12-15T09:03:24.062Z,1388
2017-12-15T09:04:24.789Z,1332
2017-12-15T09:05:25.500Z,1132
2017-12-15T09:06:26.210Z,1012
2017-12-15T09:07:26.920Z,912
2017-12-15T09:08:27.629Z,852
2017-12-15T09:09:28.339Z,904
2017-12-15T09:10:29.053Z,1024
2017-12-15T09:11:29.761Z,968
2017-12-15T09:12:30.474Z,1044
2017-12-15T09:13:31.183Z,1088
2017-12-15T09:14:31.894Z,1204
2017-12-15T09:15:32.604Z,1272
2017-12-15T09:16:33.314Z,1144
2017-12-15T09:17:34.041Z,1196
2017-12-15T09:18:34.752Z,1252
2017-12-15T09:19:35.462Z,1344
2017-12-15T09:20:36.173Z,1360
2017-12-15T09:21:36.885Z,1616
2017-12-15T09:22:37.619Z,1696
2017-12-15T09:23:38.329Z,1788
2017-12-15T09:24:39.038Z,1988
2017-12-15T09:25:39.765Z,2156
2017-12-15T09:26:40.489Z,2152
2017-12-15T09:27:41.200Z,2048
2017-12-15T09:28:41.912Z,1912
2017-12-15T09:29:42.623Z,1928
2017-12-15T09:30:43.345Z,1884
2017-12-15T09:31:44.058Z,1592
2017-12-15T09:32:44.768Z,1400
2017-12-15T09:33:45.495Z,1276
2017-12-15T09:34:46.221Z,1264
2017-12-15T09:35:46.947Z,1272
2017-12-15T09:36:47.658Z,1376
2017-12-15T09:37:48.373Z,1484
2017-12-15T09:38:49.098Z,1696
2017-12-15T09:39:49.810Z,1760
2017-12-15T09:40:50.532Z,1720
2017-12-15T09:41:51.242Z,2052
2017-12-15T09:42:51.955Z,2312
2017-12-15T09:43:52.677Z,2500
2017-12-15T09:44:53.395Z,2628
2017-12-15T09:45:54.105Z,2700
2017-12-15T09:46:54.831Z,2756
2017-12-15T09:47:55.542Z,2840
2017-12-15T09:48:56.256Z,2772
2017-12-15T09:49:56.982Z,2816
2017-12-15T09:50:57.691Z,2616
2017-12-15T09:51:58.402Z,2104
2017-12-15T09:52:59.129Z,2204
2017-12-15T09:53:59.842Z,2112
2017-12-15T09:55:00.569Z,2080
2017-12-15T09:56:01.283Z,1896
2017-12-15T09:57:02.006Z,1804
2017-12-15T09:58:02.715Z,1680
2017-12-15T09:59:03.426Z,1708
2017-12-15T10:00:04.151Z,1896
2017-12-15T10:01:04.863Z,1972
2017-12-15T10:02:05.628Z,1816
2017-12-15T10:03:06.288Z,1844
2017-12-15T10:04:07.011Z,1928
2017-12-15T10:05:07.757Z,1972
2017-12-15T10:06:08.469Z,1968
2017-12-15T10:07:09.180Z,2068
2017-12-15T10:08:09.892Z,2328
2017-12-15T10:09:10.603Z,2564
2017-12-15T10:10:11.327Z,2712
2017-12-15T10:11:12.038Z,2816
2017-12-15T10:12:12.749Z,3104
2017-12-15T10:13:13.465Z,3536
2017-12-15T10:14:14.176Z,3864
2017-12-15T10:15:14.889Z,4332
2017-12-15T10:16:15.600Z,4620
2017-12-15T10:17:16.345Z,4436
2017-12-15T10:18:17.078Z,4048
2017-12-15T10:19:17.792Z,4052
2017-12-15T10:20:18.505Z,4196
2017-12-15T10:21:19.217Z,4184
2017-12-15T10:22:19.930Z,4368
2017-12-15T10:23:20.643Z,4336
2017-12-15T10:24:21.356Z,4296
2017-12-15T10:25:22.070Z,4640
2017-12-15T10:26:22.800Z,4896
2017-12-15T10:27:23.513Z,5312
2017-12-15T10:28:24.239Z,5636
2017-12-15T10:29:24.953Z,5704
2017-12-15T10:30:25.668Z,5712
2017-12-15T10:31:26.379Z,5580
2017-12-15T10:32:27.091Z,5712
2017-12-15T10:33:27.806Z,6296
2017-12-15T10:34:28.535Z,6900
2017-12-15T10:35:29.263Z,7812
2017-12-15T10:36:29.976Z,8056
2017-12-15T10:37:30.706Z,7292
2017-12-15T10:38:31.421Z,6960
2017-12-15T10:39:32.136Z,6776
2017-12-15T10:40:32.850Z,6636
2017-12-15T10:41:33.565Z,6544
2017-12-15T10:42:34.280Z,6676
2017-12-15T10:43:34.996Z,7164
2017-12-15T10:44:35.706Z,7444
2017-12-15T10:45:36.419Z,7244
2017-12-15T10:46:37.133Z,6828
2017-12-15T10:47:37.849Z,6484
2017-12-15T10:48:38.565Z,6356
2017-12-15T10:49:39.278Z,6044
2017-12-15T10:50:39.991Z,5680
2017-12-15T10:51:40.704Z,5192
2017-12-15T10:52:41.419Z,4852
2017-12-15T10:53:42.136Z,4848
2017-12-15T10:54:42.850Z,5040
2017-12-15T10:55:43.563Z,5140
2017-12-15T10:56:44.278Z,5180
2017-12-15T10:57:44.992Z,5308
2017-12-15T10:58:45.705Z,5308
2017-12-15T10:59:46.421Z,5392
2017-12-15T11:00:47.134Z,5832
2017-12-15T11:01:47.848Z,6480
2017-12-15T11:02:48.562Z,7376
2017-12-15T11:03:49.284Z,7732
2017-12-15T11:04:49.999Z,7776
2017-12-15T11:05:50.713Z,9024
2017-12-15T11:06:51.444Z,9800
2017-12-15T11:07:52.154Z,8864
2017-12-15T11:08:52.870Z,8808
2017-12-15T11:09:53.627Z,7320
2017-12-15T11:10:54.300Z,6880
2017-12-15T11:11:55.015Z,6236
2017-12-15T11:12:55.728Z,6144
2017-12-15T11:13:56.443Z,6464
2017-12-15T11:14:57.159Z,6600
2017-12-15T11:15:57.874Z,6432
2017-12-15T11:16:58.632Z,6796
2017-12-15T11:17:59.310Z,7404
2017-12-15T11:19:00.025Z,7000
2017-12-15T11:20:00.741Z,7652
2017-12-15T11:21:01.456Z,7824
2017-12-15T11:22:02.171Z,6772
2017-12-15T11:23:02.885Z,6192
2017-12-15T11:24:03.600Z,7524
2017-12-15T11:25:04.315Z,8028
2017-12-15T11:26:05.032Z,6452
2017-12-15T11:27:05.746Z,6832
2017-12-15T11:28:06.461Z,5880
2017-12-15T11:29:07.176Z,5764
2017-12-15T11:30:07.891Z,5112
2017-12-15T11:31:08.610Z,4964
2017-12-15T11:32:09.343Z,3720
2017-12-15T11:33:10.058Z,4860
2017-12-15T11:34:10.771Z,3684
2017-12-15T11:35:11.500Z,4180
2017-12-15T11:36:12.213Z,3156
2017-12-15T11:37:12.927Z,2508
2017-12-15T11:38:13.642Z,2708
2017-12-15T11:39:14.355Z,2928
2017-12-15T11:40:15.069Z,2248
2017-12-15T11:41:15.793Z,2624
2017-12-15T11:42:16.521Z,2896
2017-12-15T11:43:17.261Z,2948
2017-12-15T11:44:17.977Z,3212
2017-12-15T11:45:18.705Z,3416
2017-12-15T11:46:19.434Z,4172
2017-12-15T11:47:20.146Z,4564
2017-12-15T11:48:20.859Z,5656
2017-12-15T11:49:21.588Z,6564
2017-12-15T11:50:22.318Z,6912
2017-12-15T11:51:23.032Z,6952
2017-12-15T11:52:23.744Z,6272
2017-12-15T11:53:24.474Z,5512
2017-12-15T11:54:25.187Z,5088
2017-12-15T11:55:25.902Z,4288
2017-12-15T11:56:26.616Z,4100
2017-12-15T11:57:27.343Z,3780
2017-12-15T11:58:28.055Z,3636
2017-12-15T11:59:28.769Z,3340
2017-12-15T12:00:29.483Z,2840
2017-12-15T12:01:30.197Z,2828
2017-12-15T12:02:30.911Z,3668
2017-12-15T12:03:31.625Z,3904
2017-12-15T12:04:32.344Z,4444
2017-12-15T12:05:33.063Z,4540
2017-12-15T12:06:33.774Z,4420
2017-12-15T12:07:34.490Z,4432
2017-12-15T12:08:35.201Z,4388
2017-12-15T12:09:35.913Z,4416
2017-12-15T12:10:36.625Z,4532
2017-12-15T12:11:37.338Z,4756
2017-12-15T12:12:38.054Z,4748
2017-12-15T12:13:38.763Z,4852
2017-12-15T12:14:39.477Z,4348
2017-12-15T12:15:40.191Z,3720
2017-12-15T12:16:40.903Z,3128
2017-12-15T12:17:41.629Z,2712
2017-12-15T12:18:42.362Z,2516
2017-12-15T12:19:43.081Z,2444
2017-12-15T12:20:43.808Z,2124
2017-12-15T12:21:44.533Z,2160
2017-12-15T12:22:45.243Z,2176
2017-12-15T12:23:45.956Z,2368
2017-12-15T12:24:46.668Z,2312
2017-12-15T12:25:47.380Z,2156
2017-12-15T12:26:48.105Z,2356
2017-12-15T12:27:48.821Z,3196
2017-12-15T12:28:49.529Z,3140
2017-12-15T12:29:50.258Z,2720
2017-12-15T12:30:50.978Z,2572
2017-12-15T12:31:51.705Z,2344
2017-12-15T12:32:52.416Z,2372
2017-12-15T12:33:53.125Z,2456
2017-12-15T12:34:53.837Z,2480
2017-12-15T12:35:54.551Z,2488
2017-12-15T12:36:55.259Z,2272
2017-12-15T12:37:55.970Z,2108
2017-12-15T12:38:56.697Z,1972
2017-12-15T12:39:57.423Z,1860
2017-12-15T12:40:58.136Z,1916
2017-12-15T12:41:58.848Z,1852
2017-12-15T12:42:59.563Z,1828
2017-12-15T12:44:00.269Z,2020
2017-12-15T12:45:00.980Z,2352
2017-12-15T12:46:01.692Z,2644
2017-12-15T12:47:02.416Z,2800
2017-12-15T12:48:03.126Z,2640
2017-12-15T12:49:03.850Z,2432
2017-12-15T12:50:04.562Z,2148
2017-12-15T12:51:05.273Z,2004
2017-12-15T12:52:05.983Z,2160
2017-12-15T12:53:06.696Z,2280
2017-12-15T12:54:07.405Z,2564
2017-12-15T12:55:08.130Z,2948
2017-12-15T12:56:08.841Z,3328
2017-12-15T12:57:09.553Z,3592
2017-12-15T12:58:10.266Z,3964
2017-12-15T12:59:10.993Z,4500
2017-12-15T13:00:11.721Z,4756
2017-12-15T13:01:12.434Z,5228
2017-12-15T13:02:13.146Z,5620
2017-12-15T13:03:13.856Z,4824
2017-12-15T13:04:14.570Z,4084
2017-12-15T13:05:15.296Z,3052
2017-12-15T13:06:16.007Z,2524
2017-12-15T13:07:16.718Z,2192
2017-12-15T13:08:17.492Z,1920
2017-12-15T13:09:18.170Z,1700
2017-12-15T13:10:18.881Z,1572
2017-12-15T13:11:19.592Z,1536
2017-12-15T13:12:20.315Z,1580
2017-12-15T13:13:21.040Z,1648
2017-12-15T13:14:21.756Z,1648
2017-12-15T13:15:22.476Z,1572
2017-12-15T13:16:23.188Z,1440
2017-12-15T13:17:23.929Z,1236
2017-12-15T13:18:24.640Z,1120
2017-12-15T13:19:25.368Z,1000
2017-12-15T13:20:26.074Z,948
2017-12-15T13:21:26.831Z,912
2017-12-15T13:22:27.540Z,928
2017-12-15T13:23:28.250Z,988
2017-12-15T13:24:28.959Z,1120
2017-12-15T13:25:29.668Z,1200
2017-12-15T13:26:30.377Z,1212
2017-12-15T13:27:31.089Z,1260
2017-12-15T13:28:31.801Z,1336
2017-12-15T13:29:32.559Z,1316
2017-12-15T13:30:33.269Z,1260
2017-12-15T13:31:33.980Z,1248
2017-12-15T13:32:34.691Z,1248
2017-12-15T13:33:35.401Z,1260
2017-12-15T13:34:36.112Z,1272
2017-12-15T13:35:36.823Z,1272
2017-12-15T13:36:37.548Z,1252
2017-12-15T13:37:38.260Z,1256
2017-12-15T13:38:38.970Z,1228
2017-12-15T13:39:39.682Z,1212
2017-12-15T13:40:40.392Z,1248
2017-12-15T13:41:41.103Z,1280
2017-12-15T13:42:41.814Z,1268
2017-12-15T13:43:42.523Z,1184
2017-12-15T13:44:43.234Z,1100
2017-12-15T13:45:43.960Z,1040
2017-12-15T13:46:44.672Z,1008
2017-12-15T13:47:45.384Z,1004
2017-12-15T13:48:46.093Z,1016
2017-12-15T13:49:46.802Z,1016
2017-12-15T13:50:47.552Z,1024
2017-12-15T13:51:48.227Z,1020
2017-12-15T13:52:48.934Z,1016
2017-12-15T13:53:49.644Z,1052
2017-12-15T13:54:50.371Z,1104
2017-12-15T13:55:51.080Z,1232
2017-12-15T13:56:51.838Z,1580
2017-12-15T13:57:52.546Z,1796
2017-12-15T13:58:53.257Z,1628
2017-12-15T13:59:54.025Z,1380
2017-12-15T14:00:54.735Z,1236
2017-12-15T14:01:55.502Z,1096
2017-12-15T14:02:56.224Z,996
2017-12-15T14:03:56.935Z,1044
2017-12-15T14:04:57.644Z,1188
2017-12-15T14:05:58.356Z,1388
2017-12-15T14:06:59.067Z,1484
2017-12-15T14:07:59.826Z,1428
2017-12-15T14:09:00.542Z,1392
2017-12-15T14:10:01.269Z,1368
2017-12-15T14:11:01.977Z,1352
2017-12-15T14:12:02.687Z,1356
2017-12-15T14:13:03.436Z,1316
2017-12-15T14:14:04.144Z,1264
2017-12-15T14:15:04.854Z,1196
2017-12-15T14:16:05.617Z,1100
2017-12-15T14:17:06.326Z,996